sensor_id;sensor_type;location;lat;lon;timestamp;pressure;altitude;pressure_sealevel;temperature;humidity
21869;BME280;11099;41.564;23.296;2023-05-06T00:00:08;97407.28;;;13.30;81.66
21869;BME280;11099;41.564;23.296;2023-05-06T00:02:34;97501.22;;;13.91;82.17
21869;BME280;11099;41.564;23.296;2023-05-06T00:05:00;97383.00;;;12.85;83.18
21869;BME280;11099;41.564;23.296;2023-05-06T00:07:55;97350.59;;;12.65;83.79
21869;BME280;11099;41.564;23.296;2023-05-06T00:10:25;97365.78;;;12.74;85.01
21869;BME280;11099;41.564;23.296;2023-05-06T00:12:51;97385.38;;;12.86;86.07
21869;BME280;11099;41.564;23.296;2023-05-06T00:15:17;97500.03;;;13.59;86.45
21869;BME280;11099;41.564;23.296;2023-05-06T00:17:43;97411.91;;;13.21;86.38
21869;BME280;11099;41.564;23.296;2023-05-06T00:20:09;97527.00;;;13.96;87.91
21869;BME280;11099;41.564;23.296;2023-05-06T00:22:35;97395.03;;;12.70;88.66
21869;BME280;11099;41.564;23.296;2023-05-06T00:25:01;97352.88;;;13.05;86.80
21869;BME280;11099;41.564;23.296;2023-05-06T00:27:27;97515.63;;;13.78;87.80
21869;BME280;11099;41.564;23.296;2023-05-06T00:29:52;97365.69;;;13.12;86.55
21869;BME280;11099;41.564;23.296;2023-05-06T00:32:18;97479.31;;;13.27;90.04
21869;BME280;11099;41.564;23.296;2023-05-06T00:34:44;97406.91;;;12.81;89.10
21869;BME280;11099;41.564;23.296;2023-05-06T00:37:09;97485.31;;;13.15;89.77
21869;BME280;11099;41.564;23.296;2023-05-06T00:39:35;97435.91;;;12.62;89.96
21869;BME280;11099;41.564;23.296;2023-05-06T00:42:00;97383.16;;;12.21;90.64
21869;BME280;11099;41.564;23.296;2023-05-06T00:44:29;97500.19;;;12.95;89.35
21869;BME280;11099;41.564;23.296;2023-05-06T00:46:57;97357.97;;;12.30;89.26
21869;BME280;11099;41.564;23.296;2023-05-06T00:49:23;97513.16;;;13.14;89.75
21869;BME280;11099;41.564;23.296;2023-05-06T00:51:50;97453.63;;;12.75;88.73
21869;BME280;11099;41.564;23.296;2023-05-06T00:54:16;97366.28;;;12.37;88.50
21869;BME280;11099;41.564;23.296;2023-05-06T00:56:42;97439.47;;;12.75;89.07
21869;BME280;11099;41.564;23.296;2023-05-06T00:59:07;97600.88;;;13.88;88.15
21869;BME280;11099;41.564;23.296;2023-05-06T01:01:33;97472.97;;;13.02;88.25
21869;BME280;11099;41.564;23.296;2023-05-06T01:03:59;97368.59;;;12.48;87.88
21869;BME280;11099;41.564;23.296;2023-05-06T01:06:34;97505.59;;;13.16;88.16
21869;BME280;11099;41.564;23.296;2023-05-06T01:09:18;97451.03;;;12.87;87.90
21869;BME280;11099;41.564;23.296;2023-05-06T01:11:57;97360.97;;;12.29;87.94
21869;BME280;11099;41.564;23.296;2023-05-06T01:14:40;97581.53;;;13.83;88.44
21869;BME280;11099;41.564;23.296;2023-05-06T01:17:10;97533.97;;;13.38;89.29
21869;BME280;11099;41.564;23.296;2023-05-06T01:19:41;97493.53;;;13.10;88.68
21869;BME280;11099;41.564;23.296;2023-05-06T01:22:12;97600.50;;;13.39;90.38
21869;BME280;11099;41.564;23.296;2023-05-06T01:24:42;97516.56;;;12.93;90.01
21869;BME280;11099;41.564;23.296;2023-05-06T01:27:09;97358.53;;;12.06;89.54
21869;BME280;11099;41.564;23.296;2023-05-06T01:29:37;97617.25;;;13.57;89.50
21869;BME280;11099;41.564;23.296;2023-05-06T01:37:30;97444.03;;;13.04;87.53
21869;BME280;11099;41.564;23.296;2023-05-06T01:39:59;97505.13;;;13.23;88.57
21869;BME280;11099;41.564;23.296;2023-05-06T01:42:25;97581.56;;;14.04;87.18
21869;BME280;11099;41.564;23.296;2023-05-06T01:44:54;97501.91;;;13.38;86.42
21869;BME280;11099;41.564;23.296;2023-05-06T01:47:22;97538.59;;;13.58;86.77
21869;BME280;11099;41.564;23.296;2023-05-06T01:49:48;97413.31;;;12.89;87.18
21869;BME280;11099;41.564;23.296;2023-05-06T01:52:16;97338.84;;;12.28;87.80
21869;BME280;11099;41.564;23.296;2023-05-06T01:54:42;97427.09;;;13.00;87.73
21869;BME280;11099;41.564;23.296;2023-05-06T01:57:07;97345.00;;;12.20;88.18
21869;BME280;11099;41.564;23.296;2023-05-06T01:59:33;97580.91;;;14.07;86.36
21869;BME280;11099;41.564;23.296;2023-05-06T02:01:59;97316.75;;;12.49;85.91
21869;BME280;11099;41.564;23.296;2023-05-06T02:04:25;97336.28;;;12.70;85.28
21869;BME280;11099;41.564;23.296;2023-05-06T02:06:50;97356.97;;;12.73;85.29
21869;BME280;11099;41.564;23.296;2023-05-06T02:09:16;97522.41;;;13.76;86.43
21869;BME280;11099;41.564;23.296;2023-05-06T02:11:41;97525.97;;;13.38;87.48
21869;BME280;11099;41.564;23.296;2023-05-06T02:14:07;97510.41;;;13.61;86.98
21869;BME280;11099;41.564;23.296;2023-05-06T02:16:32;97340.66;;;12.75;85.77
21869;BME280;11099;41.564;23.296;2023-05-06T02:18:58;97503.75;;;13.67;86.05
21869;BME280;11099;41.564;23.296;2023-05-06T02:21:24;97349.75;;;12.74;86.04
21869;BME280;11099;41.564;23.296;2023-05-06T02:23:49;97348.91;;;12.23;87.28
21869;BME280;11099;41.564;23.296;2023-05-06T02:26:15;97441.97;;;13.09;86.09
21869;BME280;11099;41.564;23.296;2023-05-06T02:28:41;97345.28;;;12.27;86.70
21869;BME280;11099;41.564;23.296;2023-05-06T02:31:06;97473.25;;;13.09;87.56
21869;BME280;11099;41.564;23.296;2023-05-06T02:33:32;97481.34;;;13.51;86.36
21869;BME280;11099;41.564;23.296;2023-05-06T02:35:58;97527.50;;;13.89;85.36
21869;BME280;11099;41.564;23.296;2023-05-06T02:38:24;97437.66;;;13.26;85.96
21869;BME280;11099;41.564;23.296;2023-05-06T02:40:50;97464.94;;;13.02;87.93
21869;BME280;11099;41.564;23.296;2023-05-06T02:43:15;97350.38;;;12.50;88.45
21869;BME280;11099;41.564;23.296;2023-05-06T02:45:41;97366.47;;;12.62;87.49
21869;BME280;11099;41.564;23.296;2023-05-06T02:48:07;97521.63;;;13.54;87.75
21869;BME280;11099;41.564;23.296;2023-05-06T02:50:33;97608.84;;;13.67;89.66
21869;BME280;11099;41.564;23.296;2023-05-06T02:52:59;97454.91;;;12.99;87.94
21869;BME280;11099;41.564;23.296;2023-05-06T02:55:26;97507.66;;;13.49;87.82
21869;BME280;11099;41.564;23.296;2023-05-06T02:57:52;97366.13;;;12.34;88.56
21869;BME280;11099;41.564;23.296;2023-05-06T03:00:17;97415.63;;;12.70;88.50
21869;BME280;11099;41.564;23.296;2023-05-06T03:03:21;97403.44;;;11.96;91.91
21869;BME280;11099;41.564;23.296;2023-05-06T03:05:59;97436.97;;;12.14;93.33
21869;BME280;11099;41.564;23.296;2023-05-06T03:08:25;97332.41;;;11.65;92.30
21869;BME280;11099;41.564;23.296;2023-05-06T03:10:51;97470.16;;;12.60;91.63
21869;BME280;11099;41.564;23.296;2023-05-06T03:13:16;97348.53;;;11.86;91.26
21869;BME280;11099;41.564;23.296;2023-05-06T03:15:42;97361.38;;;12.01;91.98
21869;BME280;11099;41.564;23.296;2023-05-06T03:18:08;97356.25;;;11.88;92.63
21869;BME280;11099;41.564;23.296;2023-05-06T03:20:33;97456.72;;;12.30;92.69
21869;BME280;11099;41.564;23.296;2023-05-06T03:22:59;97363.94;;;11.72;93.11
21869;BME280;11099;41.564;23.296;2023-05-06T03:25:25;97305.78;;;11.30;93.07
21869;BME280;11099;41.564;23.296;2023-05-06T03:27:50;97459.75;;;12.03;94.33
21869;BME280;11099;41.564;23.296;2023-05-06T03:30:16;97478.34;;;12.46;93.43
21869;BME280;11099;41.564;23.296;2023-05-06T03:32:41;97362.03;;;11.64;94.19
21869;BME280;11099;41.564;23.296;2023-05-06T03:35:10;97452.25;;;12.05;94.93
21869;BME280;11099;41.564;23.296;2023-05-06T03:37:36;97342.91;;;11.70;92.98
21869;BME280;11099;41.564;23.296;2023-05-06T03:40:02;97355.94;;;11.46;94.42
21869;BME280;11099;41.564;23.296;2023-05-06T03:42:29;97530.78;;;13.06;93.50
21869;BME280;11099;41.564;23.296;2023-05-06T03:44:54;97486.84;;;12.48;94.36
21869;BME280;11099;41.564;23.296;2023-05-06T03:47:20;97629.28;;;13.42;94.11
21869;BME280;11099;41.564;23.296;2023-05-06T03:49:48;97529.16;;;12.84;94.28
21869;BME280;11099;41.564;23.296;2023-05-06T03:52:14;97612.66;;;13.19;94.52
21869;BME280;11099;41.564;23.296;2023-05-06T03:54:40;97626.00;;;13.66;93.38
21869;BME280;11099;41.564;23.296;2023-05-06T03:57:06;97425.72;;;11.74;93.80
21869;BME280;11099;41.564;23.296;2023-05-06T03:59:31;97506.81;;;12.25;93.99
21869;BME280;11099;41.564;23.296;2023-05-06T04:01:57;97378.31;;;11.97;91.99
21869;BME280;11099;41.564;23.296;2023-05-06T04:04:23;97494.22;;;13.36;88.27
21869;BME280;11099;41.564;23.296;2023-05-06T04:06:51;97436.41;;;13.23;87.49
21869;BME280;11099;41.564;23.296;2023-05-06T04:09:17;97654.41;;;15.38;83.87
21869;BME280;11099;41.564;23.296;2023-05-06T04:11:42;97413.41;;;14.51;80.18
21869;BME280;11099;41.564;23.296;2023-05-06T04:14:08;97636.75;;;15.37;81.35
21869;BME280;11099;41.564;23.296;2023-05-06T04:16:38;97506.78;;;15.35;76.46
21869;BME280;11099;41.564;23.296;2023-05-06T04:19:04;97519.06;;;15.48;76.40
21869;BME280;11099;41.564;23.296;2023-05-06T04:21:32;97419.72;;;15.32;74.61
21869;BME280;11099;41.564;23.296;2023-05-06T04:23:58;97586.31;;;16.44;73.45
21869;BME280;11099;41.564;23.296;2023-05-06T04:26:25;97505.97;;;16.83;69.61
21869;BME280;11099;41.564;23.296;2023-05-06T04:28:50;97573.09;;;17.58;67.81
21869;BME280;11099;41.564;23.296;2023-05-06T04:31:16;97470.06;;;16.47;69.02
21869;BME280;11099;41.564;23.296;2023-05-06T04:33:42;97454.03;;;17.84;63.95
21869;BME280;11099;41.564;23.296;2023-05-06T04:36:10;97420.84;;;17.06;66.50
21869;BME280;11099;41.564;23.296;2023-05-06T04:38:37;97652.22;;;18.21;66.30
21869;BME280;11099;41.564;23.296;2023-05-06T04:41:12;97446.91;;;16.71;67.32
21869;BME280;11099;41.564;23.296;2023-05-06T04:43:38;97581.16;;;18.67;64.37
21869;BME280;11099;41.564;23.296;2023-05-06T04:46:04;97566.50;;;18.88;62.46
21869;BME280;11099;41.564;23.296;2023-05-06T04:48:30;97438.53;;;16.44;66.25
21869;BME280;11099;41.564;23.296;2023-05-06T04:50:56;97458.97;;;16.77;66.95
21869;BME280;11099;41.564;23.296;2023-05-06T04:53:22;97575.19;;;19.01;61.50
21869;BME280;11099;41.564;23.296;2023-05-06T04:55:47;97449.28;;;18.16;61.14
21869;BME280;11099;41.564;23.296;2023-05-06T04:58:16;97564.06;;;17.19;67.73
21869;BME280;11099;41.564;23.296;2023-05-06T05:00:44;97609.50;;;19.00;61.77
21869;BME280;11099;41.564;23.296;2023-05-06T05:03:10;97492.97;;;18.91;59.71
21869;BME280;11099;41.564;23.296;2023-05-06T05:05:35;97659.19;;;18.41;62.46
21869;BME280;11099;41.564;23.296;2023-05-06T05:08:01;97447.69;;;17.57;62.48
21869;BME280;11099;41.564;23.296;2023-05-06T05:10:27;97419.91;;;16.67;64.71
21869;BME280;11099;41.564;23.296;2023-05-06T05:12:53;97587.25;;;17.24;67.28
21869;BME280;11099;41.564;23.296;2023-05-06T05:15:19;97491.03;;;16.42;69.47
21869;BME280;11099;41.564;23.296;2023-05-06T05:17:49;97385.69;;;15.61;70.37
21869;BME280;11099;41.564;23.296;2023-05-06T05:20:14;97536.22;;;16.80;67.92
21869;BME280;11099;41.564;23.296;2023-05-06T05:22:40;97465.97;;;16.22;68.24
21869;BME280;11099;41.564;23.296;2023-05-06T05:25:06;97543.03;;;17.56;66.15
21869;BME280;11099;41.564;23.296;2023-05-06T05:27:32;97420.66;;;16.36;67.55
21869;BME280;11099;41.564;23.296;2023-05-06T05:29:59;97469.59;;;17.05;66.40
21869;BME280;11099;41.564;23.296;2023-05-06T05:32:25;97532.25;;;17.56;66.42
21869;BME280;11099;41.564;23.296;2023-05-06T05:34:51;97407.94;;;16.96;64.86
21869;BME280;11099;41.564;23.296;2023-05-06T05:37:17;97534.44;;;18.21;62.83
21869;BME280;11099;41.564;23.296;2023-05-06T05:39:42;97437.72;;;17.23;64.83
21869;BME280;11099;41.564;23.296;2023-05-06T05:42:08;97450.09;;;16.92;66.70
21869;BME280;11099;41.564;23.296;2023-05-06T05:44:34;97455.81;;;15.87;71.49
21869;BME280;11099;41.564;23.296;2023-05-06T05:47:01;97645.34;;;17.72;69.81
21869;BME280;11099;41.564;23.296;2023-05-06T05:49:31;97492.53;;;16.99;67.23
21869;BME280;11099;41.564;23.296;2023-05-06T05:51:57;97423.00;;;16.53;68.32
21869;BME280;11099;41.564;23.296;2023-05-06T05:54:23;97516.75;;;17.50;68.31
21869;BME280;11099;41.564;23.296;2023-05-06T05:56:48;97659.75;;;17.48;71.19
21869;BME280;11099;41.564;23.296;2023-05-06T05:59:14;97552.53;;;17.19;70.33
21869;BME280;11099;41.564;23.296;2023-05-06T06:01:40;97669.97;;;18.41;68.24
21869;BME280;11099;41.564;23.296;2023-05-06T06:04:05;97665.34;;;18.61;67.74
21869;BME280;11099;41.564;23.296;2023-05-06T06:06:31;97580.66;;;18.23;66.67
21869;BME280;11099;41.564;23.296;2023-05-06T06:08:57;97589.81;;;18.19;66.48
21869;BME280;11099;41.564;23.296;2023-05-06T06:11:24;97575.69;;;18.44;65.61
21869;BME280;11099;41.564;23.296;2023-05-06T06:13:51;97611.59;;;18.87;64.75
21869;BME280;11099;41.564;23.296;2023-05-06T06:16:23;97596.91;;;18.27;67.61
21869;BME280;11099;41.564;23.296;2023-05-06T06:18:48;97589.72;;;19.15;64.82
21869;BME280;11099;41.564;23.296;2023-05-06T06:21:22;97617.25;;;19.70;63.31
21869;BME280;11099;41.564;23.296;2023-05-06T06:23:47;97519.84;;;18.64;63.07
21869;BME280;11099;41.564;23.296;2023-05-06T06:26:13;97605.34;;;19.75;61.88
21869;BME280;11099;41.564;23.296;2023-05-06T06:28:38;97639.22;;;19.69;63.92
21869;BME280;11099;41.564;23.296;2023-05-06T06:31:04;97656.97;;;19.47;64.36
21869;BME280;11099;41.564;23.296;2023-05-06T06:33:29;97607.97;;;20.24;61.30
21869;BME280;11099;41.564;23.296;2023-05-06T06:35:55;97502.69;;;18.95;61.54
21869;BME280;11099;41.564;23.296;2023-05-06T06:38:21;97625.13;;;20.09;62.70
21869;BME280;11099;41.564;23.296;2023-05-06T06:40:46;97660.75;;;20.71;58.97
21869;BME280;11099;41.564;23.296;2023-05-06T06:43:12;97642.41;;;20.91;58.33
21869;BME280;11099;41.564;23.296;2023-05-06T06:45:46;97501.00;;;19.90;58.71
21869;BME280;11099;41.564;23.296;2023-05-06T06:48:11;97581.13;;;19.79;61.25
21869;BME280;11099;41.564;23.296;2023-05-06T06:50:37;97517.22;;;19.63;60.01
21869;BME280;11099;41.564;23.296;2023-05-06T06:53:02;97648.03;;;19.89;61.10
21869;BME280;11099;41.564;23.296;2023-05-06T06:55:27;97568.09;;;19.61;61.74
21869;BME280;11099;41.564;23.296;2023-05-06T06:57:53;97619.78;;;19.60;62.12
21869;BME280;11099;41.564;23.296;2023-05-06T07:00:19;97656.22;;;20.22;61.95
21869;BME280;11099;41.564;23.296;2023-05-06T07:02:45;97513.91;;;19.73;59.84
21869;BME280;11099;41.564;23.296;2023-05-06T07:05:12;97627.25;;;20.87;58.12
21869;BME280;11099;41.564;23.296;2023-05-06T07:07:38;97527.53;;;20.14;59.15
21869;BME280;11099;41.564;23.296;2023-05-06T07:10:04;97572.63;;;21.11;56.93
21869;BME280;11099;41.564;23.296;2023-05-06T07:12:30;97627.66;;;21.26;56.88
21869;BME280;11099;41.564;23.296;2023-05-06T07:14:57;97632.34;;;20.92;55.33
21869;BME280;11099;41.564;23.296;2023-05-06T07:17:22;97591.97;;;21.57;53.04
21869;BME280;11099;41.564;23.296;2023-05-06T07:19:48;97494.50;;;20.32;54.83
21869;BME280;11099;41.564;23.296;2023-05-06T07:22:13;97655.84;;;21.62;53.60
21869;BME280;11099;41.564;23.296;2023-05-06T07:24:39;97597.44;;;20.46;56.25
21869;BME280;11099;41.564;23.296;2023-05-06T07:27:04;97643.56;;;21.75;51.62
21869;BME280;11099;41.564;23.296;2023-05-06T07:29:30;97637.91;;;21.43;50.60
21869;BME280;11099;41.564;23.296;2023-05-06T07:31:55;97623.13;;;21.81;52.51
21869;BME280;11099;41.564;23.296;2023-05-06T07:34:21;97602.44;;;21.63;50.24
21869;BME280;11099;41.564;23.296;2023-05-06T07:36:46;97653.84;;;22.03;50.95
21869;BME280;11099;41.564;23.296;2023-05-06T07:39:12;97651.31;;;22.32;49.90
21869;BME280;11099;41.564;23.296;2023-05-06T07:41:38;97651.88;;;22.66;45.86
21869;BME280;11099;41.564;23.296;2023-05-06T07:44:04;97559.19;;;21.73;46.88
21869;BME280;11099;41.564;23.296;2023-05-06T07:46:30;97602.41;;;21.55;47.77
21869;BME280;11099;41.564;23.296;2023-05-06T07:48:56;97543.78;;;21.92;47.51
21869;BME280;11099;41.564;23.296;2023-05-06T07:51:21;97625.78;;;22.40;49.46
21869;BME280;11099;41.564;23.296;2023-05-06T07:53:47;97519.59;;;22.31;46.78
21869;BME280;11099;41.564;23.296;2023-05-06T07:56:12;97522.69;;;22.33;44.70
21869;BME280;11099;41.564;23.296;2023-05-06T07:58:38;97516.47;;;21.49;46.91
21869;BME280;11099;41.564;23.296;2023-05-06T08:01:04;97562.50;;;22.11;46.27
21869;BME280;11099;41.564;23.296;2023-05-06T08:03:30;97602.28;;;21.96;46.52
21869;BME280;11099;41.564;23.296;2023-05-06T08:05:56;97643.44;;;22.96;45.39
21869;BME280;11099;41.564;23.296;2023-05-06T08:08:22;97570.38;;;22.41;44.54
21869;BME280;11099;41.564;23.296;2023-05-06T08:10:48;97633.44;;;23.36;44.50
21869;BME280;11099;41.564;23.296;2023-05-06T08:13:13;97562.81;;;23.29;42.09
21869;BME280;11099;41.564;23.296;2023-05-06T08:15:39;97651.69;;;24.03;42.10
21869;BME280;11099;41.564;23.296;2023-05-06T08:18:05;97603.13;;;22.91;43.88
21869;BME280;11099;41.564;23.296;2023-05-06T08:20:30;97590.34;;;23.34;42.73
21869;BME280;11099;41.564;23.296;2023-05-06T08:22:56;97618.69;;;23.33;42.26
21869;BME280;11099;41.564;23.296;2023-05-06T08:25:22;97464.16;;;22.11;42.89
21869;BME280;11099;41.564;23.296;2023-05-06T08:27:47;97474.28;;;22.39;42.07
21869;BME280;11099;41.564;23.296;2023-05-06T08:30:13;97589.50;;;22.84;44.24
21869;BME280;11099;41.564;23.296;2023-05-06T08:32:39;97614.03;;;23.27;43.64
21869;BME280;11099;41.564;23.296;2023-05-06T08:35:05;97577.44;;;22.60;46.61
21869;BME280;11099;41.564;23.296;2023-05-06T08:37:31;97640.44;;;23.83;44.83
21869;BME280;11099;41.564;23.296;2023-05-06T08:39:56;97631.81;;;24.31;42.36
21869;BME280;11099;41.564;23.296;2023-05-06T08:42:24;97562.44;;;23.37;42.92
21869;BME280;11099;41.564;23.296;2023-05-06T08:44:51;97579.88;;;23.04;44.05
21869;BME280;11099;41.564;23.296;2023-05-06T08:49:43;97539.38;;;22.39;45.03
21869;BME280;11099;41.564;23.296;2023-05-06T08:52:08;97534.34;;;22.37;46.21
21869;BME280;11099;41.564;23.296;2023-05-06T08:54:35;97524.59;;;22.15;45.77
21869;BME280;11099;41.564;23.296;2023-05-06T08:57:03;97532.31;;;22.16;44.07
21869;BME280;11099;41.564;23.296;2023-05-06T08:59:30;97550.56;;;21.57;47.07
21869;BME280;11099;41.564;23.296;2023-05-06T09:02:01;97561.88;;;22.50;44.43
21869;BME280;11099;41.564;23.296;2023-05-06T09:04:27;97530.50;;;22.56;44.68
21869;BME280;11099;41.564;23.296;2023-05-06T09:06:53;97622.56;;;23.39;43.44
21869;BME280;11099;41.564;23.296;2023-05-06T09:09:18;97599.19;;;22.85;43.64
21869;BME280;11099;41.564;23.296;2023-05-06T09:11:44;97557.78;;;23.13;44.44
21869;BME280;11099;41.564;23.296;2023-05-06T09:14:15;97545.75;;;23.10;43.15
21869;BME280;11099;41.564;23.296;2023-05-06T09:16:42;97635.41;;;23.64;43.14
21869;BME280;11099;41.564;23.296;2023-05-06T09:19:08;97527.84;;;22.77;43.65
21869;BME280;11099;41.564;23.296;2023-05-06T09:21:35;97624.16;;;23.40;43.70
21869;BME280;11099;41.564;23.296;2023-05-06T09:24:03;97518.31;;;22.03;45.03
21869;BME280;11099;41.564;23.296;2023-05-06T09:26:29;97620.59;;;23.01;44.66
21869;BME280;11099;41.564;23.296;2023-05-06T09:28:56;97542.53;;;22.62;44.28
21869;BME280;11099;41.564;23.296;2023-05-06T09:31:23;97541.06;;;23.07;45.61
21869;BME280;11099;41.564;23.296;2023-05-06T09:33:50;97612.84;;;23.35;45.00
21869;BME280;11099;41.564;23.296;2023-05-06T09:36:15;97461.50;;;22.39;41.76
21869;BME280;11099;41.564;23.296;2023-05-06T09:38:41;97505.72;;;22.61;42.65
21869;BME280;11099;41.564;23.296;2023-05-06T09:41:07;97522.44;;;23.38;41.12
21869;BME280;11099;41.564;23.296;2023-05-06T09:43:34;97495.63;;;22.58;41.62
21869;BME280;11099;41.564;23.296;2023-05-06T09:46:02;97603.53;;;23.97;39.11
21869;BME280;11099;41.564;23.296;2023-05-06T09:48:30;97608.63;;;23.80;40.17
21869;BME280;11099;41.564;23.296;2023-05-06T09:50:56;97594.66;;;23.64;38.65
21869;BME280;11099;41.564;23.296;2023-05-06T09:53:23;97589.22;;;23.35;38.34
21869;BME280;11099;41.564;23.296;2023-05-06T09:55:50;97572.03;;;22.85;39.76
21869;BME280;11099;41.564;23.296;2023-05-06T09:58:18;97504.59;;;22.91;39.17
21869;BME280;11099;41.564;23.296;2023-05-06T10:00:44;97525.13;;;23.77;38.24
21869;BME280;11099;41.564;23.296;2023-05-06T10:03:12;97478.50;;;23.82;38.67
21869;BME280;11099;41.564;23.296;2023-05-06T10:05:38;97574.19;;;24.61;37.64
21869;BME280;11099;41.564;23.296;2023-05-06T10:08:04;97502.75;;;24.32;37.17
21869;BME280;11099;41.564;23.296;2023-05-06T10:10:33;97568.94;;;24.88;37.89
21869;BME280;11099;41.564;23.296;2023-05-06T10:13:01;97460.84;;;24.23;34.83
21869;BME280;11099;41.564;23.296;2023-05-06T10:15:27;97572.56;;;24.75;36.69
21869;BME280;11099;41.564;23.296;2023-05-06T10:17:54;97498.44;;;24.49;34.98
21869;BME280;11099;41.564;23.296;2023-05-06T10:20:23;97532.13;;;24.73;34.54
21869;BME280;11099;41.564;23.296;2023-05-06T10:23:11;97552.78;;;24.67;30.44
21869;BME280;11099;41.564;23.296;2023-05-06T10:25:39;97428.78;;;23.89;32.45
21869;BME280;11099;41.564;23.296;2023-05-06T10:28:07;97489.72;;;23.99;37.33
21869;BME280;11099;41.564;23.296;2023-05-06T10:30:34;97556.34;;;24.53;38.20
21869;BME280;11099;41.564;23.296;2023-05-06T10:33:05;97561.59;;;23.98;37.63
21869;BME280;11099;41.564;23.296;2023-05-06T10:38:25;97508.47;;;23.43;39.34
21869;BME280;11099;41.564;23.296;2023-05-06T10:40:53;97552.34;;;23.52;40.71
21869;BME280;11099;41.564;23.296;2023-05-06T10:43:25;97507.72;;;22.93;38.37
21869;BME280;11099;41.564;23.296;2023-05-06T10:48:23;97522.81;;;23.79;36.06
21869;BME280;11099;41.564;23.296;2023-05-06T10:50:49;97473.81;;;23.93;36.51
21869;BME280;11099;41.564;23.296;2023-05-06T10:53:14;97501.41;;;23.96;35.31
21869;BME280;11099;41.564;23.296;2023-05-06T10:55:40;97488.66;;;23.64;34.79
21869;BME280;11099;41.564;23.296;2023-05-06T10:58:12;97560.84;;;23.54;36.62
21869;BME280;11099;41.564;23.296;2023-05-06T11:00:41;97559.31;;;23.67;36.05
21869;BME280;11099;41.564;23.296;2023-05-06T11:03:22;97462.31;;;23.18;37.00
21869;BME280;11099;41.564;23.296;2023-05-06T11:05:48;97549.59;;;23.24;37.04
21869;BME280;11099;41.564;23.296;2023-05-06T11:08:21;97473.56;;;22.84;37.62
21869;BME280;11099;41.564;23.296;2023-05-06T11:10:47;97538.34;;;23.54;38.88
21869;BME280;11099;41.564;23.296;2023-05-06T11:13:26;97432.84;;;22.77;39.51
21869;BME280;11099;41.564;23.296;2023-05-06T11:15:56;97560.09;;;23.64;39.02
21869;BME280;11099;41.564;23.296;2023-05-06T11:26:10;97525.97;;;23.31;39.86
21869;BME280;11099;41.564;23.296;2023-05-06T11:28:37;97537.97;;;23.34;38.89
21869;BME280;11099;41.564;23.296;2023-05-06T11:31:03;97558.94;;;23.37;38.47
21869;BME280;11099;41.564;23.296;2023-05-06T11:33:33;97565.91;;;23.49;39.13
21869;BME280;11099;41.564;23.296;2023-05-06T11:35:59;97516.25;;;22.95;39.89
21869;BME280;11099;41.564;23.296;2023-05-06T11:38:26;97553.13;;;23.21;41.13
21869;BME280;11099;41.564;23.296;2023-05-06T11:40:51;97546.13;;;23.16;40.43
21869;BME280;11099;41.564;23.296;2023-05-06T11:43:17;97454.53;;;22.42;38.67
21869;BME280;11099;41.564;23.296;2023-05-06T11:45:44;97566.31;;;23.33;38.28
21869;BME280;11099;41.564;23.296;2023-05-06T11:48:14;97508.91;;;22.99;37.05
21869;BME280;11099;41.564;23.296;2023-05-06T11:50:46;97524.78;;;23.29;36.47
21869;BME280;11099;41.564;23.296;2023-05-06T11:53:13;97476.28;;;22.81;36.57
21869;BME280;11099;41.564;23.296;2023-05-06T11:55:41;97528.66;;;22.99;37.26
21869;BME280;11099;41.564;23.296;2023-05-06T11:58:15;97566.69;;;23.10;35.46
21869;BME280;11099;41.564;23.296;2023-05-06T12:00:55;97559.69;;;23.23;36.66
21869;BME280;11099;41.564;23.296;2023-05-06T12:03:22;97537.97;;;22.95;36.49
21869;BME280;11099;41.564;23.296;2023-05-06T12:05:49;97563.22;;;23.31;36.58
21869;BME280;11099;41.564;23.296;2023-05-06T12:08:20;97538.75;;;22.99;36.70
21869;BME280;11099;41.564;23.296;2023-05-06T12:10:51;97453.78;;;22.66;36.55
21869;BME280;11099;41.564;23.296;2023-05-06T12:13:18;97459.66;;;22.97;36.10
21869;BME280;11099;41.564;23.296;2023-05-06T12:15:44;97511.59;;;23.38;37.07
21869;BME280;11099;41.564;23.296;2023-05-06T12:18:11;97499.97;;;23.27;37.57
21869;BME280;11099;41.564;23.296;2023-05-06T12:20:37;97551.19;;;23.64;39.07
21869;BME280;11099;41.564;23.296;2023-05-06T12:23:14;97452.22;;;22.79;38.40
21869;BME280;11099;41.564;23.296;2023-05-06T12:25:41;97452.63;;;23.06;37.34
21869;BME280;11099;41.564;23.296;2023-05-06T12:28:16;97520.47;;;23.71;36.32
21869;BME280;11099;41.564;23.296;2023-05-06T12:30:42;97554.97;;;23.99;37.11
21869;BME280;11099;41.564;23.296;2023-05-06T12:33:08;97462.72;;;23.17;37.45
21869;BME280;11099;41.564;23.296;2023-05-06T12:35:36;97547.22;;;23.97;36.79
21869;BME280;11099;41.564;23.296;2023-05-06T12:38:09;97551.06;;;24.03;36.68
21869;BME280;11099;41.564;23.296;2023-05-06T12:40:35;97457.97;;;23.56;37.33
21869;BME280;11099;41.564;23.296;2023-05-06T12:43:01;97438.28;;;23.20;37.51
21869;BME280;11099;41.564;23.296;2023-05-06T12:45:26;97555.38;;;23.93;38.58
21869;BME280;11099;41.564;23.296;2023-05-06T12:47:59;97449.91;;;23.21;37.73
21869;BME280;11099;41.564;23.296;2023-05-06T12:50:47;97459.22;;;23.30;36.48
21869;BME280;11099;41.564;23.296;2023-05-06T12:53:29;97490.94;;;23.90;38.25
21869;BME280;11099;41.564;23.296;2023-05-06T12:55:55;97416.50;;;23.34;37.47
21869;BME280;11099;41.564;23.296;2023-05-06T12:58:20;97452.56;;;23.63;37.33
21869;BME280;11099;41.564;23.296;2023-05-06T13:00:46;97527.38;;;24.00;37.99
21869;BME280;11099;41.564;23.296;2023-05-06T13:03:12;97442.16;;;23.19;38.45
21869;BME280;11099;41.564;23.296;2023-05-06T13:05:38;97485.22;;;23.24;38.53
21869;BME280;11099;41.564;23.296;2023-05-06T13:08:04;97469.31;;;23.19;38.14
21869;BME280;11099;41.564;23.296;2023-05-06T13:10:29;97392.91;;;22.46;39.24